sensor_id;sensor_type;location;lat;lon;timestamp;P1;durP1;ratioP1;P2;durP2;ratioP2
40116;SDS011;25829;50.228;18.936;2022-09-16T00:00:46;6.72;;;6.00;;
40116;SDS011;25829;50.228;18.936;2022-09-16T00:03:47;8.70;;;6.22;;
40116;SDS011;25829;50.228;18.936;2022-09-16T00:06:48;8.35;;;6.38;;
40116;SDS011;25829;50.228;18.936;2022-09-16T00:09:49;7.88;;;6.13;;
40116;SDS011;25829;50.228;18.936;2022-09-16T00:12:49;14.85;;;6.80;;
40116;SDS011;25829;50.228;18.936;2022-09-16T00:15:50;8.88;;;6.03;;
40116;SDS011;25829;50.228;18.936;2022-09-16T00:18:55;12.18;;;6.50;;
40116;SDS011;25829;50.228;18.936;2022-09-16T00:21:57;9.18;;;6.00;;
40116;SDS011;25829;50.228;18.936;2022-09-16T00:33:49;9.77;;;6.30;;
40116;SDS011;25829;50.228;18.936;2022-09-16T00:36:50;12.07;;;6.10;;
40116;SDS011;25829;50.228;18.936;2022-09-16T00:39:50;10.82;;;5.97;;
40116;SDS011;25829;50.228;18.936;2022-09-16T00:42:51;9.73;;;5.22;;
40116;SDS011;25829;50.228;18.936;2022-09-16T00:46:01;9.43;;;6.57;;
40116;SDS011;25829;50.228;18.936;2022-09-16T00:49:12;10.50;;;6.15;;
40116;SDS011;25829;50.228;18.936;2022-09-16T00:52:22;12.07;;;6.20;;
40116;SDS011;25829;50.228;18.936;2022-09-16T00:55:24;6.43;;;5.75;;
40116;SDS011;25829;50.228;18.936;2022-09-16T01:01:47;9.98;;;5.78;;
40116;SDS011;25829;50.228;18.936;2022-09-16T01:04:56;10.30;;;5.82;;
40116;SDS011;25829;50.228;18.936;2022-09-16T01:07:57;9.70;;;5.88;;
40116;SDS011;25829;50.228;18.936;2022-09-16T01:11:04;8.40;;;6.75;;
40116;SDS011;25829;50.228;18.936;2022-09-16T01:14:05;7.40;;;5.20;;
40116;SDS011;25829;50.228;18.936;2022-09-16T01:37:05;7.70;;;5.78;;
40116;SDS011;25829;50.228;18.936;2022-09-16T01:40:13;8.10;;;5.03;;
40116;SDS011;25829;50.228;18.936;2022-09-16T02:03:09;9.02;;;5.30;;
40116;SDS011;25829;50.228;18.936;2022-09-16T02:06:16;7.70;;;5.40;;
40116;SDS011;25829;50.228;18.936;2022-09-16T02:09:30;5.15;;;4.65;;
40116;SDS011;25829;50.228;18.936;2022-09-16T02:12:37;6.05;;;4.75;;
40116;SDS011;25829;50.228;18.936;2022-09-16T02:15:40;7.00;;;4.68;;
40116;SDS011;25829;50.228;18.936;2022-09-16T02:18:45;5.85;;;4.68;;
40116;SDS011;25829;50.228;18.936;2022-09-16T02:21:52;7.75;;;5.35;;
40116;SDS011;25829;50.228;18.936;2022-09-16T02:24:56;7.30;;;5.03;;
40116;SDS011;25829;50.228;18.936;2022-09-16T02:27:59;7.45;;;4.65;;
40116;SDS011;25829;50.228;18.936;2022-09-16T02:31:06;6.50;;;4.75;;
40116;SDS011;25829;50.228;18.936;2022-09-16T02:34:15;6.25;;;4.18;;
40116;SDS011;25829;50.228;18.936;2022-09-16T02:37:31;5.53;;;4.55;;
40116;SDS011;25829;50.228;18.936;2022-09-16T02:40:55;4.88;;;4.15;;
40116;SDS011;25829;50.228;18.936;2022-09-16T02:43:58;5.40;;;4.63;;
40116;SDS011;25829;50.228;18.936;2022-09-16T02:47:10;6.57;;;3.80;;
40116;SDS011;25829;50.228;18.936;2022-09-16T02:50:26;7.40;;;4.78;;
40116;SDS011;25829;50.228;18.936;2022-09-16T02:53:43;4.72;;;4.22;;
40116;SDS011;25829;50.228;18.936;2022-09-16T02:57:02;9.27;;;4.25;;
40116;SDS011;25829;50.228;18.936;2022-09-16T03:00:04;8.07;;;4.13;;
40116;SDS011;25829;50.228;18.936;2022-09-16T03:03:07;5.05;;;4.22;;
40116;SDS011;25829;50.228;18.936;2022-09-16T03:09:09;11.63;;;4.28;;
40116;SDS011;25829;50.228;18.936;2022-09-16T03:15:46;7.43;;;5.35;;
40116;SDS011;25829;50.228;18.936;2022-09-16T03:19:02;8.50;;;4.85;;
40116;SDS011;25829;50.228;18.936;2022-09-16T03:32:05;5.40;;;3.35;;
40116;SDS011;25829;50.228;18.936;2022-09-16T03:35:19;8.38;;;4.10;;
40116;SDS011;25829;50.228;18.936;2022-09-16T03:38:26;4.60;;;3.85;;
40116;SDS011;25829;50.228;18.936;2022-09-16T03:41:28;7.82;;;4.10;;
40116;SDS011;25829;50.228;18.936;2022-09-16T03:44:33;4.13;;;3.55;;
40116;SDS011;25829;50.228;18.936;2022-09-16T03:47:35;5.70;;;3.92;;
40116;SDS011;25829;50.228;18.936;2022-09-16T03:50:36;4.07;;;3.40;;
40116;SDS011;25829;50.228;18.936;2022-09-16T03:53:37;4.38;;;3.20;;
40116;SDS011;25829;50.228;18.936;2022-09-16T03:56:37;8.77;;;4.05;;
40116;SDS011;25829;50.228;18.936;2022-09-16T03:59:38;4.50;;;3.50;;
40116;SDS011;25829;50.228;18.936;2022-09-16T04:02:39;7.53;;;3.35;;
40116;SDS011;25829;50.228;18.936;2022-09-16T04:05:39;5.03;;;3.28;;
40116;SDS011;25829;50.228;18.936;2022-09-16T04:08:40;4.85;;;3.50;;
40116;SDS011;25829;50.228;18.936;2022-09-16T04:11:43;5.40;;;3.28;;
40116;SDS011;25829;50.228;18.936;2022-09-16T04:14:44;5.63;;;3.05;;
40116;SDS011;25829;50.228;18.936;2022-09-16T04:17:45;5.65;;;3.08;;
40116;SDS011;25829;50.228;18.936;2022-09-16T04:20:45;7.00;;;4.00;;
40116;SDS011;25829;50.228;18.936;2022-09-16T04:23:46;3.67;;;3.33;;
40116;SDS011;25829;50.228;18.936;2022-09-16T04:26:47;3.95;;;3.42;;
40116;SDS011;25829;50.228;18.936;2022-09-16T04:29:48;4.07;;;3.28;;
40116;SDS011;25829;50.228;18.936;2022-09-16T04:32:52;8.43;;;3.58;;
40116;SDS011;25829;50.228;18.936;2022-09-16T04:35:59;6.88;;;3.33;;
40116;SDS011;25829;50.228;18.936;2022-09-16T04:39:07;3.90;;;3.42;;
40116;SDS011;25829;50.228;18.936;2022-09-16T04:42:08;6.45;;;3.72;;
40116;SDS011;25829;50.228;18.936;2022-09-16T04:45:11;6.60;;;3.83;;
40116;SDS011;25829;50.228;18.936;2022-09-16T04:48:12;6.35;;;3.40;;
40116;SDS011;25829;50.228;18.936;2022-09-16T04:51:13;5.75;;;3.67;;
40116;SDS011;25829;50.228;18.936;2022-09-16T04:54:14;7.28;;;3.63;;
40116;SDS011;25829;50.228;18.936;2022-09-16T04:57:15;14.48;;;11.55;;
40116;SDS011;25829;50.228;18.936;2022-09-16T05:00:15;12.05;;;6.85;;
40116;SDS011;25829;50.228;18.936;2022-09-16T05:03:16;6.07;;;4.70;;
40116;SDS011;25829;50.228;18.936;2022-09-16T05:06:19;5.75;;;4.65;;
40116;SDS011;25829;50.228;18.936;2022-09-16T05:09:24;4.80;;;3.60;;
40116;SDS011;25829;50.228;18.936;2022-09-16T05:12:25;3.63;;;3.30;;
40116;SDS011;25829;50.228;18.936;2022-09-16T05:15:25;6.03;;;4.18;;
40116;SDS011;25829;50.228;18.936;2022-09-16T05:18:26;8.75;;;3.33;;
40116;SDS011;25829;50.228;18.936;2022-09-16T05:21:27;5.32;;;3.33;;
40116;SDS011;25829;50.228;18.936;2022-09-16T05:24:28;4.65;;;4.07;;
40116;SDS011;25829;50.228;18.936;2022-09-16T05:27:29;6.43;;;3.05;;
40116;SDS011;25829;50.228;18.936;2022-09-16T05:30:31;5.97;;;3.97;;
40116;SDS011;25829;50.228;18.936;2022-09-16T05:33:34;7.78;;;3.92;;
40116;SDS011;25829;50.228;18.936;2022-09-16T05:36:35;5.40;;;4.40;;
40116;SDS011;25829;50.228;18.936;2022-09-16T05:39:43;10.35;;;6.10;;
40116;SDS011;25829;50.228;18.936;2022-09-16T05:42:47;11.43;;;9.82;;
40116;SDS011;25829;50.228;18.936;2022-09-16T05:45:52;13.70;;;12.23;;
40116;SDS011;25829;50.228;18.936;2022-09-16T05:48:53;13.40;;;8.23;;
40116;SDS011;25829;50.228;18.936;2022-09-16T05:51:54;8.95;;;5.45;;
40116;SDS011;25829;50.228;18.936;2022-09-16T05:54:54;7.45;;;4.95;;
40116;SDS011;25829;50.228;18.936;2022-09-16T05:57:55;8.55;;;4.95;;
40116;SDS011;25829;50.228;18.936;2022-09-16T06:01:06;6.43;;;4.18;;
40116;SDS011;25829;50.228;18.936;2022-09-16T06:04:08;6.88;;;4.78;;
40116;SDS011;25829;50.228;18.936;2022-09-16T06:07:11;6.25;;;4.72;;
40116;SDS011;25829;50.228;18.936;2022-09-16T06:10:17;7.55;;;4.63;;
40116;SDS011;25829;50.228;18.936;2022-09-16T06:13:24;9.55;;;4.50;;
40116;SDS011;25829;50.228;18.936;2022-09-16T06:16:25;5.47;;;4.35;;
40116;SDS011;25829;50.228;18.936;2022-09-16T06:19:27;5.95;;;4.30;;
40116;SDS011;25829;50.228;18.936;2022-09-16T06:22:29;8.80;;;4.38;;
40116;SDS011;25829;50.228;18.936;2022-09-16T06:25:30;7.13;;;4.53;;
40116;SDS011;25829;50.228;18.936;2022-09-16T06:28:31;9.43;;;4.30;;
40116;SDS011;25829;50.228;18.936;2022-09-16T06:31:32;7.45;;;3.97;;
40116;SDS011;25829;50.228;18.936;2022-09-16T06:34:34;8.20;;;4.70;;
40116;SDS011;25829;50.228;18.936;2022-09-16T06:37:35;7.40;;;5.47;;
40116;SDS011;25829;50.228;18.936;2022-09-16T06:40:36;5.55;;;5.00;;
40116;SDS011;25829;50.228;18.936;2022-09-16T06:43:36;7.07;;;4.63;;
40116;SDS011;25829;50.228;18.936;2022-09-16T06:46:38;6.43;;;4.90;;
40116;SDS011;25829;50.228;18.936;2022-09-16T06:49:38;5.38;;;4.88;;
40116;SDS011;25829;50.228;18.936;2022-09-16T06:52:39;6.13;;;5.10;;
40116;SDS011;25829;50.228;18.936;2022-09-16T06:55:40;7.10;;;4.97;;
40116;SDS011;25829;50.228;18.936;2022-09-16T06:58:42;6.88;;;5.15;;
40116;SDS011;25829;50.228;18.936;2022-09-16T07:01:43;8.75;;;5.32;;
40116;SDS011;25829;50.228;18.936;2022-09-16T07:04:44;5.78;;;4.93;;
40116;SDS011;25829;50.228;18.936;2022-09-16T07:07:45;6.82;;;5.10;;
40116;SDS011;25829;50.228;18.936;2022-09-16T07:10:53;9.82;;;5.72;;
40116;SDS011;25829;50.228;18.936;2022-09-16T07:13:58;11.30;;;5.32;;
40116;SDS011;25829;50.228;18.936;2022-09-16T07:16:59;9.00;;;5.63;;
40116;SDS011;25829;50.228;18.936;2022-09-16T07:20:01;8.35;;;5.57;;
40116;SDS011;25829;50.228;18.936;2022-09-16T07:23:02;9.52;;;5.75;;
40116;SDS011;25829;50.228;18.936;2022-09-16T07:26:04;6.55;;;5.80;;
40116;SDS011;25829;50.228;18.936;2022-09-16T07:29:08;6.40;;;5.57;;
40116;SDS011;25829;50.228;18.936;2022-09-16T07:32:12;6.85;;;5.82;;
40116;SDS011;25829;50.228;18.936;2022-09-16T07:35:13;8.20;;;5.65;;
40116;SDS011;25829;50.228;18.936;2022-09-16T07:38:13;6.20;;;5.18;;
40116;SDS011;25829;50.228;18.936;2022-09-16T07:41:16;5.90;;;5.30;;
40116;SDS011;25829;50.228;18.936;2022-09-16T07:44:18;6.55;;;5.43;;
40116;SDS011;25829;50.228;18.936;2022-09-16T07:47:19;5.68;;;5.07;;
40116;SDS011;25829;50.228;18.936;2022-09-16T07:50:20;7.72;;;5.38;;
40116;SDS011;25829;50.228;18.936;2022-09-16T07:53:21;5.80;;;5.20;;
40116;SDS011;25829;50.228;18.936;2022-09-16T07:56:54;6.65;;;5.00;;
40116;SDS011;25829;50.228;18.936;2022-09-16T07:59:56;6.10;;;5.18;;
40116;SDS011;25829;50.228;18.936;2022-09-16T08:03:00;9.30;;;5.22;;
40116;SDS011;25829;50.228;18.936;2022-09-16T08:06:01;6.07;;;5.47;;
40116;SDS011;25829;50.228;18.936;2022-09-16T08:09:06;5.18;;;4.65;;
40116;SDS011;25829;50.228;18.936;2022-09-16T08:12:07;8.50;;;4.35;;
40116;SDS011;25829;50.228;18.936;2022-09-16T08:15:10;6.22;;;4.78;;
40116;SDS011;25829;50.228;18.936;2022-09-16T08:18:10;4.97;;;4.18;;
40116;SDS011;25829;50.228;18.936;2022-09-16T08:21:12;6.82;;;4.25;;
40116;SDS011;25829;50.228;18.936;2022-09-16T08:24:17;5.68;;;4.03;;
40116;SDS011;25829;50.228;18.936;2022-09-16T08:27:18;6.20;;;4.32;;
40116;SDS011;25829;50.228;18.936;2022-09-16T08:30:19;6.43;;;4.38;;
40116;SDS011;25829;50.228;18.936;2022-09-16T08:33:20;6.07;;;3.75;;
40116;SDS011;25829;50.228;18.936;2022-09-16T08:36:25;5.65;;;3.60;;
40116;SDS011;25829;50.228;18.936;2022-09-16T08:39:26;3.75;;;3.22;;
40116;SDS011;25829;50.228;18.936;2022-09-16T08:42:30;3.95;;;3.30;;
40116;SDS011;25829;50.228;18.936;2022-09-16T08:45:56;6.65;;;3.47;;
40116;SDS011;25829;50.228;18.936;2022-09-16T08:52:35;5.47;;;3.47;;
40116;SDS011;25829;50.228;18.936;2022-09-16T08:55:41;4.45;;;4.05;;
40116;SDS011;25829;50.228;18.936;2022-09-16T08:58:53;4.80;;;3.28;;
40116;SDS011;25829;50.228;18.936;2022-09-16T09:01:59;3.88;;;3.50;;
40116;SDS011;25829;50.228;18.936;2022-09-16T09:05:05;4.32;;;3.50;;
40116;SDS011;25829;50.228;18.936;2022-09-16T09:24:30;4.20;;;3.80;;
40116;SDS011;25829;50.228;18.936;2022-09-16T09:27:58;4.97;;;4.05;;
40116;SDS011;25829;50.228;18.936;2022-09-16T09:31:10;4.47;;;4.07;;
40116;SDS011;25829;50.228;18.936;2022-09-16T09:37:19;5.72;;;4.10;;
40116;SDS011;25829;50.228;18.936;2022-09-16T09:46:59;4.57;;;4.18;;
40116;SDS011;25829;50.228;18.936;2022-09-16T09:50:10;5.13;;;3.80;;
40116;SDS011;25829;50.228;18.936;2022-09-16T09:53:38;4.55;;;3.85;;
40116;SDS011;25829;50.228;18.936;2022-09-16T09:56:43;3.97;;;3.58;;
40116;SDS011;25829;50.228;18.936;2022-09-16T09:59:46;5.43;;;3.75;;
40116;SDS011;25829;50.228;18.936;2022-09-16T10:02:59;4.22;;;3.83;;
40116;SDS011;25829;50.228;18.936;2022-09-16T10:06:06;4.22;;;3.80;;
40116;SDS011;25829;50.228;18.936;2022-09-16T10:09:13;3.15;;;2.85;;
40116;SDS011;25829;50.228;18.936;2022-09-16T10:12:25;3.30;;;2.92;;
40116;SDS011;25829;50.228;18.936;2022-09-16T10:15:33;5.90;;;2.90;;
40116;SDS011;25829;50.228;18.936;2022-09-16T10:18:35;3.03;;;2.70;;
40116;SDS011;25829;50.228;18.936;2022-09-16T10:21:38;5.25;;;3.17;;
40116;SDS011;25829;50.228;18.936;2022-09-16T10:24:42;2.88;;;2.47;;
40116;SDS011;25829;50.228;18.936;2022-09-16T10:27:42;4.43;;;2.60;;
40116;SDS011;25829;50.228;18.936;2022-09-16T10:30:56;3.42;;;2.80;;
40116;SDS011;25829;50.228;18.936;2022-09-16T10:33:58;3.30;;;2.53;;
40116;SDS011;25829;50.228;18.936;2022-09-16T10:40:13;2.88;;;2.35;;
40116;SDS011;25829;50.228;18.936;2022-09-16T10:43:16;2.97;;;2.78;;
40116;SDS011;25829;50.228;18.936;2022-09-16T10:46:17;4.07;;;3.03;;
40116;SDS011;25829;50.228;18.936;2022-09-16T10:49:21;3.08;;;2.72;;
40116;SDS011;25829;50.228;18.936;2022-09-16T10:52:27;3.10;;;2.80;;
40116;SDS011;25829;50.228;18.936;2022-09-16T10:55:30;2.80;;;2.45;;
40116;SDS011;25829;50.228;18.936;2022-09-16T10:58:34;9.38;;;2.97;;
40116;SDS011;25829;50.228;18.936;2022-09-16T11:24:54;2.30;;;2.10;;
40116;SDS011;25829;50.228;18.936;2022-09-16T11:28:05;3.88;;;2.20;;
40116;SDS011;25829;50.228;18.936;2022-09-16T11:41:32;4.40;;;2.40;;
40116;SDS011;25829;50.228;18.936;2022-09-16T11:45:06;2.50;;;2.10;;
40116;SDS011;25829;50.228;18.936;2022-09-16T11:48:22;4.53;;;2.10;;
40116;SDS011;25829;50.228;18.936;2022-09-16T11:55:21;2.60;;;2.10;;
40116;SDS011;25829;50.228;18.936;2022-09-16T12:02:02;2.78;;;2.20;;
40116;SDS011;25829;50.228;18.936;2022-09-16T12:08:39;3.17;;;2.17;;
40116;SDS011;25829;50.228;18.936;2022-09-16T12:12:04;3.92;;;2.30;;
40116;SDS011;25829;50.228;18.936;2022-09-16T12:18:30;2.45;;;2.15;;
40116;SDS011;25829;50.228;18.936;2022-09-16T12:21:48;3.47;;;2.25;;
40116;SDS011;25829;50.228;18.936;2022-09-16T12:28:15;2.50;;;2.03;;
40116;SDS011;25829;50.228;18.936;2022-09-16T12:34:40;2.20;;;2.00;;
40116;SDS011;25829;50.228;18.936;2022-09-16T12:37:55;4.53;;;2.47;;
40116;SDS011;25829;50.228;18.936;2022-09-16T12:41:41;5.40;;;2.33;;
40116;SDS011;25829;50.228;18.936;2022-09-16T13:08:07;3.13;;;2.47;;
40116;SDS011;25829;50.228;18.936;2022-09-16T13:11:26;10.15;;;3.22;;
40116;SDS011;25829;50.228;18.936;2022-09-16T13:14:30;3.75;;;2.60;;
40116;SDS011;25829;50.228;18.936;2022-09-16T13:26:47;4.10;;;3.00;;
40116;SDS011;25829;50.228;18.936;2022-09-16T13:29:48;5.88;;;3.33;;
40116;SDS011;25829;50.228;18.936;2022-09-16T13:36:47;4.45;;;3.05;;
40116;SDS011;25829;50.228;18.936;2022-09-16T13:39:48;3.67;;;2.42;;
40116;SDS011;25829;50.228;18.936;2022-09-16T13:42:49;2.95;;;2.63;;
40116;SDS011;25829;50.228;18.936;2022-09-16T13:45:59;2.97;;;2.30;;
40116;SDS011;25829;50.228;18.936;2022-09-16T13:52:10;8.10;;;2.05;;
40116;SDS011;25829;50.228;18.936;2022-09-16T13:55:23;3.13;;;2.28;;
40116;SDS011;25829;50.228;18.936;2022-09-16T13:58:29;3.47;;;3.03;;
40116;SDS011;25829;50.228;18.936;2022-09-16T14:01:59;3.72;;;2.10;;
40116;SDS011;25829;50.228;18.936;2022-09-16T14:05:58;3.13;;;2.08;;
40116;SDS011;25829;50.228;18.936;2022-09-16T14:09:00;7.47;;;2.20;;
40116;SDS011;25829;50.228;18.936;2022-09-16T14:12:14;3.53;;;2.40;;
40116;SDS011;25829;50.228;18.936;2022-09-16T14:15:26;2.55;;;2.35;;
40116;SDS011;25829;50.228;18.936;2022-09-16T14:18:28;3.33;;;2.90;;
40116;SDS011;25829;50.228;18.936;2022-09-16T14:21:32;5.45;;;2.50;;
40116;SDS011;25829;50.228;18.936;2022-09-16T14:24:40;2.20;;;2.00;;
40116;SDS011;25829;50.228;18.936;2022-09-16T14:27:45;2.30;;;2.10;;
40116;SDS011;25829;50.228;18.936;2022-09-16T14:30:55;4.15;;;2.30;;
40116;SDS011;25829;50.228;18.936;2022-09-16T14:34:02;2.97;;;2.63;;
40116;SDS011;25829;50.228;18.936;2022-09-16T14:37:11;2.33;;;2.13;;
40116;SDS011;25829;50.228;18.936;2022-09-16T14:40:17;2.78;;;2.25;;
40116;SDS011;25829;50.228;18.936;2022-09-16T14:43:23;3.42;;;2.45;;
40116;SDS011;25829;50.228;18.936;2022-09-16T14:46:24;3.45;;;2.55;;
40116;SDS011;25829;50.228;18.936;2022-09-16T14:49:38;2.63;;;2.40;;
40116;SDS011;25829;50.228;18.936;2022-09-16T14:52:50;3.63;;;2.40;;
40116;SDS011;25829;50.228;18.936;2022-09-16T14:55:54;3.35;;;2.40;;
40116;SDS011;25829;50.228;18.936;2022-09-16T14:58:57;5.38;;;2.38;;
40116;SDS011;25829;50.228;18.936;2022-09-16T15:02:02;2.50;;;2.20;;
40116;SDS011;25829;50.228;18.936;2022-09-16T15:12:02;3.80;;;2.45;;
40116;SDS011;25829;50.228;18.936;2022-09-16T15:15:16;3.33;;;2.60;;
40116;SDS011;25829;50.228;18.936;2022-09-16T15:27:25;3.60;;;2.80;;
40116;SDS011;25829;50.228;18.936;2022-09-16T15:30:35;3.22;;;2.70;;
40116;SDS011;25829;50.228;18.936;2022-09-16T15:33:50;4.90;;;2.63;;
40116;SDS011;25829;50.228;18.936;2022-09-16T15:36:54;3.83;;;2.67;;
40116;SDS011;25829;50.228;18.936;2022-09-16T15:40:31;5.03;;;3.10;;
40116;SDS011;25829;50.228;18.936;2022-09-16T15:44:13;4.00;;;3.70;;
40116;SDS011;25829;50.228;18.936;2022-09-16T15:47:27;3.08;;;2.72;;
40116;SDS011;25829;50.228;18.936;2022-09-16T15:51:23;11.30;;;10.20;;
40116;SDS011;25829;50.228;18.936;2022-09-16T15:54:27;5.82;;;5.25;;
40116;SDS011;25829;50.228;18.936;2022-09-16T15:57:42;11.52;;;10.45;;
40116;SDS011;25829;50.228;18.936;2022-09-16T16:04:22;5.30;;;4.80;;
40116;SDS011;25829;50.228;18.936;2022-09-16T16:07:39;8.57;;;5.80;;
40116;SDS011;25829;50.228;18.936;2022-09-16T16:10:46;7.57;;;5.75;;
40116;SDS011;25829;50.228;18.936;2022-09-16T16:14:09;7.50;;;4.75;;
40116;SDS011;25829;50.228;18.936;2022-09-16T16:20:12;3.97;;;3.13;;
40116;SDS011;25829;50.228;18.936;2022-09-16T16:23:15;5.82;;;4.70;;
40116;SDS011;25829;50.228;18.936;2022-09-16T16:26:17;4.85;;;4.22;;
40116;SDS011;25829;50.228;18.936;2022-09-16T16:29:17;8.23;;;6.05;;
40116;SDS011;25829;50.228;18.936;2022-09-16T16:32:18;13.65;;;6.30;;
40116;SDS011;25829;50.228;18.936;2022-09-16T16:35:19;10.50;;;5.57;;
40116;SDS011;25829;50.228;18.936;2022-09-16T16:38:20;9.02;;;5.43;;
40116;SDS011;25829;50.228;18.936;2022-09-16T16:41:21;11.10;;;6.47;;
40116;SDS011;25829;50.228;18.936;2022-09-16T16:44:24;12.85;;;6.95;;
40116;SDS011;25829;50.228;18.936;2022-09-16T16:47:25;10.45;;;7.72;;
40116;SDS011;25829;50.228;18.936;2022-09-16T16:50:25;11.48;;;8.15;;
40116;SDS011;25829;50.228;18.936;2022-09-16T16:53:26;16.95;;;12.27;;
40116;SDS011;25829;50.228;18.936;2022-09-16T16:56:28;16.63;;;10.45;;
40116;SDS011;25829;50.228;18.936;2022-09-16T16:59:28;13.50;;;8.40;;
40116;SDS011;25829;50.228;18.936;2022-09-16T17:02:30;8.88;;;6.18;;
40116;SDS011;25829;50.228;18.936;2022-09-16T17:05:30;10.32;;;5.05;;
40116;SDS011;25829;50.228;18.936;2022-09-16T17:08:31;6.05;;;3.58;;
40116;SDS011;25829;50.228;18.936;2022-09-16T17:11:33;5.68;;;3.78;;
40116;SDS011;25829;50.228;18.936;2022-09-16T17:14:35;4.50;;;3.17;;
40116;SDS011;25829;50.228;18.936;2022-09-16T17:17:35;6.78;;;3.60;;
40116;SDS011;25829;50.228;18.936;2022-09-16T17:20:36;6.28;;;3.45;;
40116;SDS011;25829;50.228;18.936;2022-09-16T17:23:37;4.95;;;3.45;;
40116;SDS011;25829;50.228;18.936;2022-09-16T17:26:39;4.43;;;3.65;;
40116;SDS011;25829;50.228;18.936;2022-09-16T17:29:39;7.18;;;3.63;;
40116;SDS011;25829;50.228;18.936;2022-09-16T17:32:40;4.72;;;3.17;;
40116;SDS011;25829;50.228;18.936;2022-09-16T17:35:41;5.40;;;3.40;;
40116;SDS011;25829;50.228;18.936;2022-09-16T17:38:42;4.65;;;3.65;;
40116;SDS011;25829;50.228;18.936;2022-09-16T17:41:43;4.30;;;3.45;;
40116;SDS011;25829;50.228;18.936;2022-09-16T17:44:45;4.13;;;3.72;;
40116;SDS011;25829;50.228;18.936;2022-09-16T17:47:46;4.43;;;3.53;;
40116;SDS011;25829;50.228;18.936;2022-09-16T17:50:50;8.35;;;6.28;;
40116;SDS011;25829;50.228;18.936;2022-09-16T17:53:51;9.15;;;5.22;;
40116;SDS011;25829;50.228;18.936;2022-09-16T17:56:52;10.35;;;5.70;;
40116;SDS011;25829;50.228;18.936;2022-09-16T17:59:53;8.40;;;4.78;;
40116;SDS011;25829;50.228;18.936;2022-09-16T18:02:53;8.93;;;4.97;;
40116;SDS011;25829;50.228;18.936;2022-09-16T18:06:00;4.60;;;3.90;;
40116;SDS011;25829;50.228;18.936;2022-09-16T18:09:05;7.90;;;3.75;;
40116;SDS011;25829;50.228;18.936;2022-09-16T18:12:06;5.95;;;3.72;;
40116;SDS011;25829;50.228;18.936;2022-09-16T18:15:07;4.45;;;3.33;;
40116;SDS011;25829;50.228;18.936;2022-09-16T18:18:08;4.97;;;3.28;;
40116;SDS011;25829;50.228;18.936;2022-09-16T18:21:11;4.88;;;3.55;;
40116;SDS011;25829;50.228;18.936;2022-09-16T18:24:17;6.05;;;3.97;;
40116;SDS011;25829;50.228;18.936;2022-09-16T18:27:18;4.75;;;3.60;;
40116;SDS011;25829;50.228;18.936;2022-09-16T18:30:19;7.43;;;4.40;;
40116;SDS011;25829;50.228;18.936;2022-09-16T18:33:21;5.28;;;3.58;;
40116;SDS011;25829;50.228;18.936;2022-09-16T18:36:23;5.90;;;3.95;;
40116;SDS011;25829;50.228;18.936;2022-09-16T18:39:28;5.78;;;3.70;;
40116;SDS011;25829;50.228;18.936;2022-09-16T18:42:28;5.57;;;3.63;;
40116;SDS011;25829;50.228;18.936;2022-09-16T18:45:29;6.20;;;3.50;;
40116;SDS011;25829;50.228;18.936;2022-09-16T18:48:31;5.35;;;3.97;;
40116;SDS011;25829;50.228;18.936;2022-09-16T18:51:35;6.20;;;4.05;;
40116;SDS011;25829;50.228;18.936;2022-09-16T18:54:38;6.32;;;3.83;;
40116;SDS011;25829;50.228;18.936;2022-09-16T18:57:53;7.60;;;4.10;;
40116;SDS011;25829;50.228;18.936;2022-09-16T19:01:03;6.95;;;4.53;;
40116;SDS011;25829;50.228;18.936;2022-09-16T19:13:02;6.43;;;4.97;;
40116;SDS011;25829;50.228;18.936;2022-09-16T19:16:09;6.72;;;5.13;;
40116;SDS011;25829;50.228;18.936;2022-09-16T19:19:11;7.38;;;5.00;;
40116;SDS011;25829;50.228;18.936;2022-09-16T19:22:13;9.82;;;5.97;;
40116;SDS011;25829;50.228;18.936;2022-09-16T19:25:14;10.38;;;5.40;;
40116;SDS011;25829;50.228;18.936;2022-09-16T19:28:15;8.38;;;5.18;;
40116;SDS011;25829;50.228;18.936;2022-09-16T19:31:17;10.68;;;5.28;;
40116;SDS011;25829;50.228;18.936;2022-09-16T19:34:18;11.40;;;5.43;;
40116;SDS011;25829;50.228;18.936;2022-09-16T19:44:28;10.23;;;6.47;;
40116;SDS011;25829;50.228;18.936;2022-09-16T19:47:29;8.60;;;6.28;;
40116;SDS011;25829;50.228;18.936;2022-09-16T19:50:30;10.55;;;5.90;;
40116;SDS011;25829;50.228;18.936;2022-09-16T19:53:30;9.20;;;5.68;;
40116;SDS011;25829;50.228;18.936;2022-09-16T19:56:42;7.28;;;5.32;;
40116;SDS011;25829;50.228;18.936;2022-09-16T19:59:42;8.82;;;5.25;;
40116;SDS011;25829;50.228;18.936;2022-09-16T20:02:45;7.22;;;6.10;;
40116;SDS011;25829;50.228;18.936;2022-09-16T20:05:45;8.80;;;5.55;;
40116;SDS011;25829;50.228;18.936;2022-09-16T20:08:46;11.05;;;6.13;;
40116;SDS011;25829;50.228;18.936;2022-09-16T20:11:51;8.38;;;5.72;;
40116;SDS011;25829;50.228;18.936;2022-09-16T20:14:59;10.18;;;5.47;;
40116;SDS011;25829;50.228;18.936;2022-09-16T20:18:00;8.90;;;5.88;;
40116;SDS011;25829;50.228;18.936;2022-09-16T20:21:14;7.97;;;5.43;;
40116;SDS011;25829;50.228;18.936;2022-09-16T20:24:22;9.43;;;6.03;;
40116;SDS011;25829;50.228;18.936;2022-09-16T20:27:26;10.45;;;6.15;;
40116;SDS011;25829;50.228;18.936;2022-09-16T20:30:27;8.98;;;5.63;;
40116;SDS011;25829;50.228;18.936;2022-09-16T20:33:45;8.77;;;5.40;;
40116;SDS011;25829;50.228;18.936;2022-09-16T20:36:46;7.10;;;5.32;;
40116;SDS011;25829;50.228;18.936;2022-09-16T20:39:47;10.48;;;5.82;;
40116;SDS011;25829;50.228;18.936;2022-09-16T20:42:48;6.00;;;4.65;;
40116;SDS011;25829;50.228;18.936;2022-09-16T20:45:48;9.07;;;5.95;;
40116;SDS011;25829;50.228;18.936;2022-09-16T20:48:53;8.57;;;5.85;;
40116;SDS011;25829;50.228;18.936;2022-09-16T20:51:55;9.93;;;5.95;;
40116;SDS011;25829;50.228;18.936;2022-09-16T20:54:56;9.05;;;5.75;;
40116;SDS011;25829;50.228;18.936;2022-09-16T20:57:58;8.13;;;6.05;;
40116;SDS011;25829;50.228;18.936;2022-09-16T21:01:09;9.65;;;5.38;;
40116;SDS011;25829;50.228;18.936;2022-09-16T21:04:15;8.15;;;5.68;;
40116;SDS011;25829;50.228;18.936;2022-09-16T21:07:18;9.25;;;5.60;;
40116;SDS011;25829;50.228;18.936;2022-09-16T21:10:18;10.35;;;6.05;;
40116;SDS011;25829;50.228;18.936;2022-09-16T21:13:22;9.82;;;5.95;;
40116;SDS011;25829;50.228;18.936;2022-09-16T21:16:24;8.87;;;6.43;;
40116;SDS011;25829;50.228;18.936;2022-09-16T21:19:27;9.68;;;6.55;;
40116;SDS011;25829;50.228;18.936;2022-09-16T21:22:27;14.17;;;8.10;;
40116;SDS011;25829;50.228;18.936;2022-09-16T21:25:28;14.27;;;8.68;;
40116;SDS011;25829;50.228;18.936;2022-09-16T21:28:30;12.83;;;8.00;;
40116;SDS011;25829;50.228;18.936;2022-09-16T21:31:32;12.97;;;8.10;;
40116;SDS011;25829;50.228;18.936;2022-09-16T21:34:33;13.48;;;6.97;;
40116;SDS011;25829;50.228;18.936;2022-09-16T21:37:35;9.17;;;6.73;;
40116;SDS011;25829;50.228;18.936;2022-09-16T21:40:36;11.80;;;7.17;;
40116;SDS011;25829;50.228;18.936;2022-09-16T21:43:41;10.37;;;6.93;;
40116;SDS011;25829;50.228;18.936;2022-09-16T21:46:49;10.27;;;6.83;;
40116;SDS011;25829;50.228;18.936;2022-09-16T21:49:50;10.20;;;6.40;;
40116;SDS011;25829;50.228;18.936;2022-09-16T21:52:51;8.67;;;6.10;;
40116;SDS011;25829;50.228;18.936;2022-09-16T21:55:58;9.23;;;5.97;;
40116;SDS011;25829;50.228;18.936;2022-09-16T21:59:03;8.43;;;6.13;;
40116;SDS011;25829;50.228;18.936;2022-09-16T22:02:06;9.20;;;6.27;;
40116;SDS011;25829;50.228;18.936;2022-09-16T22:05:07;8.53;;;5.93;;
40116;SDS011;25829;50.228;18.936;2022-09-16T22:08:08;9.20;;;5.90;;
40116;SDS011;25829;50.228;18.936;2022-09-16T22:11:10;9.37;;;6.30;;